Ice Star — OUJK2 — position and weather

sailwx.info

Track history (hours):
 
Tides and Currents Weather Stations Pressure Air Temp Water Temp Dewpoint Dewpoint Depression Visibility Wind Speed Wind Dir Waves Ship Positions

Ice Star

Last reported at 2015-May-04 05:27 UTC. Time now 2015-May-05 06:10 UTC.
Position N 24°54' E 119°39'.

Length 367 m; draft 12.1 m.

Type: Ship. MMSI: 220596000.

Date/timePositionNaut miles runAvg speedWind from/ knotsBaromVisibWave heightAir tempDewpointWater temp
2015-May-04 05:27N 24°54' E 119°39'3015.7
2015-May-04 03:33N 24°33' E 119°17'4915.7
2015-May-04 00:27N 24°01' E 118°36'1516.4
2015-May-03 23:33N 23°52' E 118°23'1916.6
2015-May-03 22:26N 23°41' E 118°06'8016.2
2015-May-03 17:32N 22°51' E 116°59'14116.7
2015-May-03 09:04N 22°18' E 114°31'2111.9
2015-May-03 07:19N 22°34' E 114°16'0 0.1
2015-May-02 23:18N 22°34' E 114°16'1 0.1
2015-May-02 10:29N 22°34' E 114°18'16 5.1
2015-May-02 07:19N 22°21' E 114°28'7 9.5
2015-May-02 06:33N 22°16' E 114°34'  
Track history (hours):
 
Tides and Currents Weather Stations Pressure Air Temp Water Temp Dewpoint Dewpoint Depression Visibility Wind Speed Wind Dir Waves Ship Positions

Ice Star

Last reported at 2015-May-04 05:27 UTC. Time now 2015-May-05 06:10 UTC.
Position N 24°54' E 119°39'.

Length 367 m; draft 12.1 m.

Type: Ship. MMSI: 220596000.

Date/timePositionNaut miles runAvg speedWind from/ knotsBaromVisibWave heightAir tempDewpointWater temp
2015-May-04 05:27N 24°54' E 119°39'3015.7
2015-May-04 03:33N 24°33' E 119°17'4915.7
2015-May-04 00:27N 24°01' E 118°36'1516.4
2015-May-03 23:33N 23°52' E 118°23'1916.6
2015-May-03 22:26N 23°41' E 118°06'8016.2
2015-May-03 17:32N 22°51' E 116°59'14116.7
2015-May-03 09:04N 22°18' E 114°31'2111.9
2015-May-03 07:19N 22°34' E 114°16'0 0.1
2015-May-02 23:18N 22°34' E 114°16'1 0.1
2015-May-02 10:29N 22°34' E 114°18'16 5.1
2015-May-02 07:19N 22°21' E 114°28'7 9.5
2015-May-02 06:33N 22°16' E 114°34'  

Dump ship's entire track history